Time;durP1;ratioP1;P1;durP2;ratioP2;P2;SDS_P1;SDS_P2;PMS_P1;PMS_P2;Temp;Humidity;BMP_temperature;BMP_pressure;BME280_temperature;BME280_humidity;BME280_pressure;Samples;Min_cycle;Max_cycle;Signal;HPM_P1;HPM_P2
2022/04/20 00:01:53;;;;;;;22.85;18.40;;;;;;;7.17;100.00;100340.64;1742402;82;21030;-76
2022/04/20 00:04:22;;;;;;;23.90;18.35;;;;;;;7.16;100.00;100337.67;1742134;82;21973;-78
2022/04/20 00:06:50;;;;;;;21.23;17.70;;;;;;;7.14;100.00;100333.05;1742418;82;21030;-76
2022/04/20 00:09:18;;;;;;;19.62;17.27;;;;;;;7.13;100.00;100337.42;1742802;82;21045;-76
2022/04/20 00:11:47;;;;;;;20.60;17.20;;;;;;;7.14;100.00;100331.31;1742882;82;21770;-78
2022/04/20 00:14:14;;;;;;;24.57;17.55;;;;;;;7.13;100.00;100332.23;1742466;82;21132;-77
2022/04/20 00:16:42;;;;;;;22.73;16.82;;;;;;;7.10;100.00;100339.75;1742349;82;21160;-76
2022/04/20 00:19:10;;;;;;;20.50;17.37;;;;;;;7.11;100.00;100349.63;1743051;82;21594;-78
2022/04/20 00:21:40;;;;;;;23.42;17.95;;;;;;;7.12;100.00;100352.59;1742592;82;20998;-77
2022/04/20 00:24:08;;;;;;;25.65;18.87;;;;;;;7.15;100.00;100356.28;1743125;82;21072;-77
2022/04/20 00:26:36;;;;;;;24.63;18.37;;;;;;;7.18;100.00;100358.66;1742593;82;21705;-76
2022/04/20 00:29:05;;;;;;;20.57;17.17;;;;;;;7.19;100.00;100369.38;1734530;81;21532;-77
2022/04/20 00:31:32;;;;;;;22.77;17.95;;;;;;;7.20;100.00;100368.45;1734362;82;21031;-76
2022/04/20 00:34:00;;;;;;;24.90;19.20;;;;;;;7.21;100.00;100368.83;1734234;82;21074;-78
2022/04/20 00:36:29;;;;;;;22.30;17.73;;;;;;;7.19;100.00;100367.27;1733609;82;21496;-76
2022/04/20 00:38:57;;;;;;;25.92;19.35;;;;;;;7.18;100.00;100369.49;1733711;82;21015;-76
2022/04/20 00:41:26;;;;;;;26.95;19.98;;;;;;;7.14;100.00;100370.60;1713767;82;21058;-78
2022/04/20 00:43:54;;;;;;;28.27;20.90;;;;;;;7.06;100.00;100373.70;1734094;81;21033;-76
2022/04/20 00:46:25;;;;;;;28.50;20.55;;;;;;;7.00;100.00;100380.09;1734010;82;21002;-78
2022/04/20 00:48:57;;;;;;;28.42;20.57;;;;;;;6.95;100.00;100382.98;1734413;81;21575;-77
2022/04/20 00:51:25;;;;;;;31.70;22.70;;;;;;;6.92;100.00;100383.19;1734102;81;21065;-76
2022/04/20 00:53:52;;;;;;;27.07;19.90;;;;;;;6.88;100.00;100384.30;1733842;81;21144;-80
2022/04/20 00:56:20;;;;;;;22.35;18.00;;;;;;;6.83;100.00;100388.95;1734201;82;21038;-81
2022/04/20 00:58:48;;;;;;;25.05;19.40;;;;;;;6.78;100.00;100387.09;1734097;81;21547;-77
2022/04/20 01:01:18;;;;;;;24.18;18.85;;;;;;;6.72;100.00;100385.74;1733905;81;21018;-76
2022/04/20 01:03:47;;;;;;;26.70;19.77;;;;;;;6.66;100.00;100385.28;1733821;82;20990;-79
2022/04/20 01:06:18;;;;;;;23.07;18.70;;;;;;;6.59;100.00;100384.38;1733416;81;21592;-76
2022/04/20 01:09:00;;;;;;;;;;;;;;;6.54;100.00;100377.34;1736197;81;21532;-76
2022/04/20 01:11:41;;;;;;;22.22;18.55;;;;;;;6.49;100.00;100375.99;1719026;82;20206;-77
2022/04/20 01:14:17;;;;;;;25.35;19.45;;;;;;;6.43;100.00;100375.42;1686027;82;21379;-76
2022/04/20 01:16:55;;;;;;;25.88;19.07;;;;;;;6.38;100.00;100372.75;1731190;82;21030;-76
2022/04/20 01:19:34;;;;;;;29.75;21.12;;;;;;;6.37;100.00;100368.05;1692090;82;21975;-76
2022/04/20 01:22:06;;;;;;;;;;;;;;;6.35;100.00;100359.55;1732729;82;21045;-75
2022/04/20 01:24:37;;;;;;;26.37;20.25;;;;;;;6.31;100.00;100360.67;1734435;82;20136;-79
2022/04/20 01:27:19;;;;;;;27.35;19.42;;;;;;;6.29;100.00;100364.62;1731462;82;21042;-77
2022/04/20 01:29:54;;;;;;;25.43;19.65;;;;;;;6.26;100.00;100357.08;1715930;81;21037;-77
2022/04/20 01:32:40;;;;;;;26.25;19.35;;;;;;;6.26;100.00;100369.16;1752841;81;21214;-75
2022/04/20 01:35:10;;;;;;;26.48;19.90;;;;;;;6.24;100.00;100375.72;1749361;81;21074;-80
2022/04/20 01:37:39;;;;;;;27.50;19.90;;;;;;;6.24;100.00;100377.49;1752733;81;21030;-77
2022/04/20 01:40:08;;;;;;;30.25;22.82;;;;;;;6.22;100.00;100374.16;1752971;81;21105;-76
2022/04/20 01:43:06;;;;;;;27.70;21.57;;;;;;;6.19;100.00;100371.30;1752573;81;21058;-76
2022/04/20 01:50:12;;;;;;;32.65;24.98;;;;;;;6.13;100.00;100366.48;1754681;81;21030;-75
2022/04/20 01:52:50;;;;;;;33.05;24.75;;;;;;;6.11;100.00;100364.48;1751268;81;21062;-75
2022/04/20 01:55:23;;;;;;;32.42;24.52;;;;;;;6.07;100.00;100357.81;1751774;81;21051;-77
2022/04/20 01:57:59;;;;;;;30.92;24.32;;;;;;;6.04;100.00;100354.95;1750130;81;21607;-76
2022/04/20 02:00:32;;;;;;;32.78;25.40;;;;;;;6.04;100.00;100346.38;1750332;81;21565;-76
2022/04/20 02:03:02;;;;;;;35.38;25.65;;;;;;;6.03;100.00;100351.18;1750099;81;21022;-76
2022/04/20 02:05:40;;;;;;;31.60;24.85;;;;;;;6.02;100.00;100349.04;1727108;81;21156;-77
2022/04/20 02:08:19;;;;;;;29.32;23.75;;;;;;;6.04;100.00;100342.51;1752452;81;21097;-78
2022/04/20 02:11:06;;;;;;;34.43;25.95;;;;;;;6.03;100.00;100346.02;1752443;81;21038;-77
2022/04/20 02:13:37;;;;;;;32.85;25.20;;;;;;;6.04;100.00;100339.45;1753238;81;21082;-77
2022/04/20 02:16:07;;;;;;;35.58;26.17;;;;;;;6.04;100.00;100337.34;1734030;81;21583;-78
2022/04/20 02:18:52;;;;;;;32.88;25.48;;;;;;;6.04;100.00;100336.86;1753437;81;21042;-76
2022/04/20 02:21:34;;;;;;;34.75;25.82;;;;;;;6.03;100.00;100333.09;1752085;81;21516;-76
2022/04/20 02:24:01;;;;;;;31.12;24.63;;;;;;;6.01;100.00;100335.74;1752802;81;21066;-76
2022/04/20 02:26:30;;;;;;;29.37;24.20;;;;;;;6.00;100.00;100334.11;1752898;81;21430;-75
2022/04/20 02:28:59;;;;;;;29.95;24.45;;;;;;;6.00;100.00;100342.68;1752622;81;21274;-79
2022/04/20 02:31:29;;;;;;;29.27;22.55;;;;;;;6.00;100.00;100356.08;1746685;82;21095;-76
2022/04/20 02:33:57;;;;;;;32.65;23.85;;;;;;;6.00;100.00;100365.94;1746231;82;21046;-76
2022/04/20 02:36:24;;;;;;;30.37;22.95;;;;;;;6.02;100.00;100371.02;1739464;81;21029;-77
2022/04/20 02:38:53;;;;;;;31.82;23.80;;;;;;;6.02;100.00;100376.18;1746859;80;21057;-81
2022/04/20 02:41:22;;;;;;;31.75;24.30;;;;;;;6.04;100.00;100381.28;1747031;82;21056;-77
2022/04/20 02:43:49;;;;;;;26.87;21.37;;;;;;;6.06;100.00;100380.70;1747128;80;21010;-76
2022/04/20 02:46:16;;;;;;;29.90;22.20;;;;;;;6.07;100.00;100375.91;1747012;80;21048;-77
2022/04/20 02:48:43;;;;;;;27.93;22.07;;;;;;;6.07;100.00;100369.45;1746810;81;21116;-77
2022/04/20 02:51:11;;;;;;;28.02;22.10;;;;;;;6.06;100.00;100376.83;1746868;82;21709;-77
2022/04/20 02:53:40;;;;;;;31.62;23.15;;;;;;;6.06;100.00;100377.67;1746009;80;21261;-75
2022/04/20 02:56:07;;;;;;;33.42;23.35;;;;;;;6.04;100.00;100379.52;1747094;82;21077;-76
2022/04/20 02:58:36;;;;;;;32.35;22.85;;;;;;;6.05;100.00;100390.23;1746060;82;20986;-76
2022/04/20 03:01:06;;;;;;;30.55;21.82;;;;;;;6.03;100.00;100394.65;1746624;82;21034;-76
2022/04/20 03:03:35;;;;;;;33.90;21.83;;;;;;;6.04;100.00;100395.50;1733173;82;22241;-75
2022/04/20 03:06:04;;;;;;;33.78;21.20;;;;;;;6.03;100.00;100392.06;1714090;81;21020;-80
2022/04/20 03:08:32;;;;;;;33.35;21.60;;;;;;;6.00;100.00;100396.96;1719015;81;21042;-77
2022/04/20 03:11:02;;;;;;;32.13;19.77;;;;;;;5.99;100.00;100403.05;1746752;81;21042;-76
2022/04/20 03:13:31;;;;;;;30.48;19.85;;;;;;;5.98;100.00;100407.81;1747205;81;21088;-76
2022/04/20 03:16:00;;;;;;;31.07;19.37;;;;;;;5.99;100.00;100408.69;1746794;81;21295;-79
2022/04/20 03:18:32;;;;;;;33.25;19.35;;;;;;;5.99;100.00;100413.39;1747140;81;21046;-76
2022/04/20 03:21:01;;;;;;;28.23;18.07;;;;;;;5.99;100.00;100418.56;1744144;81;21544;-76
2022/04/20 03:23:31;;;;;;;25.40;16.45;;;;;;;5.97;100.00;100412.61;1747008;81;20975;-76
2022/04/20 03:26:01;;;;;;;27.05;17.10;;;;;;;5.96;100.00;100412.27;1743636;81;21103;-80
2022/04/20 03:28:30;;;;;;;29.25;19.12;;;;;;;5.94;100.00;100411.95;1712430;83;21176;-79
2022/04/20 03:30:59;;;;;;;30.45;19.02;;;;;;;5.91;100.00;100407.80;1746770;81;21042;-77
2022/04/20 03:33:27;;;;;;;29.37;18.70;;;;;;;5.90;100.00;100413.08;1718865;83;21093;-77
2022/04/20 03:35:55;;;;;;;28.30;18.10;;;;;;;5.88;100.00;100418.79;1719069;83;21117;-77
2022/04/20 03:38:23;;;;;;;24.35;16.65;;;;;;;5.87;100.00;100424.43;1719011;83;21105;-83
2022/04/20 03:40:51;;;;;;;24.00;16.45;;;;;;;5.84;100.00;100422.86;1747053;81;21135;-78
2022/04/20 03:43:20;;;;;;;21.95;16.55;;;;;;;5.83;100.00;100417.77;1747075;81;21025;-78
2022/04/20 03:45:50;;;;;;;22.87;16.77;;;;;;;5.84;100.00;100420.28;1719250;83;21096;-76
2022/04/20 03:48:17;;;;;;;22.32;16.32;;;;;;;5.85;100.00;100408.17;1717631;81;21064;-76
2022/04/20 03:50:46;;;;;;;21.70;16.48;;;;;;;5.86;100.00;100416.30;1747122;82;21483;-78
2022/04/20 03:53:14;;;;;;;19.35;15.53;;;;;;;5.88;100.00;100426.54;1731355;82;21902;-75
2022/04/20 03:55:43;;;;;;;22.82;16.05;;;;;;;5.89;100.00;100434.67;1699564;81;21002;-77
2022/04/20 03:58:10;;;;;;;20.68;16.05;;;;;;;5.91;100.00;100439.30;1747070;82;21526;-76
2022/04/20 04:00:38;;;;;;;18.87;15.25;;;;;;;5.93;100.00;100431.81;1747275;82;21711;-75
2022/04/20 04:03:06;;;;;;;19.95;15.50;;;;;;;5.96;100.00;100428.22;1746924;82;21015;-76
2022/04/20 04:05:37;;;;;;;23.20;16.35;;;;;;;5.97;100.00;100429.41;1746440;82;21636;-77
2022/04/20 04:08:07;;;;;;;20.65;15.80;;;;;;;6.00;100.00;100430.56;1742974;82;21095;-78
2022/04/20 04:10:36;;;;;;;19.95;15.65;;;;;;;6.01;100.00;100441.72;1746641;82;21041;-76
2022/04/20 04:13:06;;;;;;;22.80;16.17;;;;;;;6.01;100.00;100444.30;1746585;82;21027;-76
2022/04/20 04:15:35;;;;;;;20.45;16.32;;;;;;;5.96;100.00;100444.58;1746448;82;20989;-77
2022/04/20 04:18:05;;;;;;;20.82;15.83;;;;;;;5.89;100.00;100448.41;1746630;82;21535;-76
2022/04/20 04:20:37;;;;;;;21.82;15.70;;;;;;;5.85;100.00;100439.19;1743236;82;21298;-78
2022/04/20 04:23:06;;;;;;;21.55;16.55;;;;;;;5.82;100.00;100436.77;1725405;82;21008;-76
2022/04/20 04:25:52;;;;;;;22.20;16.62;;;;;;;5.81;100.00;100444.14;1746697;82;21008;-78
2022/04/20 04:28:21;;;;;;;22.90;16.62;;;;;;;5.83;100.00;100443.60;1735926;82;21063;-78
2022/04/20 04:30:48;;;;;;;25.10;17.10;;;;;;;5.83;100.00;100435.84;1738029;81;21805;-75
2022/04/20 04:33:18;;;;;;;25.52;17.70;;;;;;;5.82;100.00;100418.68;1733549;82;21033;-76
2022/04/20 04:35:45;;;;;;;24.80;17.40;;;;;;;5.80;100.00;100420.07;1715007;82;21051;-76
2022/04/20 04:38:15;;;;;;;33.98;22.05;;;;;;;5.81;100.00;100415.72;1733703;82;21074;-80
2022/04/20 04:40:43;;;;;;;27.55;20.08;;;;;;;5.82;100.00;100425.98;1730082;82;21118;-75
2022/04/20 04:43:13;;;;;;;27.25;18.57;;;;;;;5.80;100.00;100434.75;1728709;82;21523;-76
2022/04/20 04:48:47;;;;;;;25.00;18.02;;;;;;;5.74;100.00;100434.64;1729327;81;21091;-75
2022/04/20 04:51:12;;;;;;;26.65;19.90;;;;;;;5.76;100.00;100437.13;1725506;82;21098;-77
2022/04/20 04:53:42;;;;;;;27.35;20.30;;;;;;;5.79;100.00;100442.12;1733544;82;21075;-76
2022/04/20 04:56:10;;;;;;;29.98;20.32;;;;;;;5.80;100.00;100445.09;1714202;82;21158;-76
2022/04/20 04:58:39;;;;;;;31.82;21.68;;;;;;;5.80;100.00;100448.97;1721221;82;21606;-76
2022/04/20 05:01:08;;;;;;;27.73;21.70;;;;;;;5.79;100.00;100455.88;1721915;82;21623;-76
2022/04/20 05:03:36;;;;;;;28.75;21.27;;;;;;;5.80;100.00;100458.02;1716509;83;21438;-75
2022/04/20 05:06:05;;;;;;;33.95;24.10;;;;;;;5.81;100.00;100460.94;1683372;83;21556;-77
2022/04/20 05:08:44;;;;;;;32.08;23.10;;;;;;;5.82;100.00;100459.58;1681269;83;21021;-76
2022/04/20 05:11:12;;;;;;;34.13;25.12;;;;;;;5.83;100.00;100457.81;1711447;83;21030;-76
2022/04/20 05:13:40;;;;;;;36.05;25.68;;;;;;;5.82;100.00;100463.45;1710936;83;21034;-76
2022/04/20 05:16:09;;;;;;;38.55;28.83;;;;;;;5.84;100.00;100467.23;1693697;83;21087;-76
2022/04/20 05:18:37;;;;;;;38.08;27.27;;;;;;;5.86;100.00;100474.45;1697830;82;21512;-76
2022/04/20 05:21:09;;;;;;;34.73;26.02;;;;;;;5.86;100.00;100473.16;1701281;83;21101;-78
2022/04/20 05:23:40;;;;;;;35.20;24.65;;;;;;;5.87;100.00;100477.85;1682624;82;38292;-79
2022/04/20 05:26:09;;;;;;;35.75;26.37;;;;;;;5.91;100.00;100490.98;1732536;82;21094;-78
2022/04/20 05:28:40;;;;;;;36.50;26.97;;;;;;;5.92;100.00;100488.30;1730564;82;21158;-76
2022/04/20 05:31:07;;;;;;;41.80;28.10;;;;;;;5.93;100.00;100492.55;1734682;82;21914;-79
2022/04/20 05:33:40;;;;;;;35.55;26.00;;;;;;;5.96;100.00;100485.93;1735831;81;21121;-76
2022/04/20 05:36:23;;;;;;;38.38;27.20;;;;;;;5.97;100.00;100470.77;1720062;80;21050;-77
2022/04/20 05:41:51;;;;;;;38.25;27.07;;;;;;;6.05;100.00;100474.24;1741482;80;21014;-75
2022/04/20 05:44:20;;;;;;;34.85;25.95;;;;;;;6.10;100.00;100479.14;1690124;84;21053;-75
2022/04/20 05:46:49;;;;;;;40.20;27.22;;;;;;;6.14;100.00;100482.76;1738639;82;21312;-76
2022/04/20 05:49:21;;;;;;;36.77;25.68;;;;;;;6.18;100.00;100485.99;1736392;82;21480;-76
2022/04/20 05:51:51;;;;;;;35.50;26.20;;;;;;;6.21;100.00;100485.80;1738593;82;21160;-76
2022/04/20 05:54:19;;;;;;;34.67;26.30;;;;;;;6.22;100.00;100477.12;1663517;84;21029;-76
2022/04/20 05:56:48;;;;;;;37.20;26.68;;;;;;;6.25;100.00;100477.42;1738462;82;21069;-76
2022/04/20 05:59:18;;;;;;;39.50;27.35;;;;;;;6.29;100.00;100484.06;1738828;82;21034;-76
2022/04/20 06:01:46;;;;;;;40.52;27.00;;;;;;;6.31;100.00;100494.68;1738602;82;21041;-80
2022/04/20 06:04:18;;;;;;;40.38;26.25;;;;;;;6.35;100.00;100502.27;1738683;82;21034;-76
2022/04/20 06:07:00;;;;;;;33.23;23.70;;;;;;;6.37;100.00;100495.26;1698762;82;21014;-75
2022/04/20 06:09:40;;;;;;;31.68;22.62;;;;;;;6.38;100.00;100486.11;1736772;82;21029;-77
2022/04/20 06:12:17;;;;;;;34.73;23.65;;;;;;;6.41;100.00;100486.38;1739211;82;21104;-75
2022/04/20 06:14:54;;;;;;;33.95;23.50;;;;;;;6.43;100.00;100484.54;1735752;82;21006;-76
2022/04/20 06:17:44;;;;;;;32.30;22.47;;;;;;;6.45;100.00;100487.84;1719557;82;21049;-76
2022/04/20 06:20:12;;;;;;;34.95;23.65;;;;;;;6.50;100.00;100483.25;1738750;82;21062;-75
2022/04/20 06:22:49;;;;;;;33.30;23.52;;;;;;;6.53;100.00;100477.87;1741546;82;21046;-76
2022/04/20 06:25:30;;;;;;;30.08;20.43;;;;;;;6.57;100.00;100479.36;1675371;82;21571;-75
2022/04/20 06:28:06;;;;;;;27.70;20.60;;;;;;;6.59;100.00;100480.11;1691516;82;21030;-77
2022/04/20 06:30:44;;;;;;;27.02;20.48;;;;;;;6.59;100.00;100480.11;1736890;82;21398;-77
2022/04/20 06:33:21;;;;;;;27.52;20.43;;;;;;;6.61;100.00;100488.59;1734981;82;21057;-76
2022/04/20 06:36:02;;;;;;;27.80;19.80;;;;;;;6.68;100.00;100493.41;1740996;82;21046;-76
2022/04/20 06:38:48;;;;;;;27.55;20.25;;;;;;;6.73;100.00;100492.66;1740922;82;21917;-77
2022/04/20 06:41:27;;;;;;;26.95;20.12;;;;;;;6.82;100.00;100495.98;1641731;86;21086;-79
2022/04/20 06:44:12;;;;;;;25.25;21.07;;;;;;;6.92;100.00;100488.48;1741421;82;21453;-75
2022/04/20 06:46:41;;;;;;;26.00;21.15;;;;;;;6.97;100.00;100498.08;1741290;82;21570;-79
2022/04/20 06:49:27;;;;;;;27.70;22.52;;;;;;;7.02;100.00;100496.50;1741368;82;22230;-76
2022/04/20 07:00:20;;;;;;;27.25;22.98;;;;;;;7.13;100.00;100480.31;1740891;82;22212;-78
2022/04/20 07:03:09;;;;;;;31.48;24.32;;;;;;;7.13;100.00;100474.66;1727268;82;21049;-77
2022/04/20 07:05:55;;;;;;;32.63;24.90;;;;;;;7.20;100.00;100469.94;1666026;83;21758;-79
2022/04/20 07:08:29;;;;;;;29.45;22.95;;;;;;;7.30;100.00;100467.58;1726362;82;21018;-78
2022/04/20 07:11:04;;;;;;;39.33;28.35;;;;;;;7.39;100.00;100461.82;1685940;84;22048;-78
2022/04/20 07:13:37;;;;;;;37.85;28.40;;;;;;;7.48;100.00;100461.23;1692217;82;21570;-79
2022/04/20 07:16:06;;;;;;;40.65;30.12;;;;;;;7.58;100.00;100462.75;1709040;82;21040;-79
2022/04/20 07:18:36;;;;;;;46.80;32.40;;;;;;;7.67;100.00;100464.75;1701919;82;21128;-78
2022/04/20 07:21:08;;;;;;;44.75;30.75;;;;;;;7.73;100.00;100460.45;1670030;84;21102;-78
2022/04/20 07:23:40;;;;;;;52.67;35.80;;;;;;;7.83;100.00;100453.38;1674642;84;21130;-81
2022/04/20 07:26:11;;;;;;;44.30;31.42;;;;;;;7.96;100.00;100457.28;1671945;85;21617;-78
2022/04/20 07:28:48;;;;;;;52.98;35.52;;;;;;;8.11;100.00;100461.44;1672000;85;20946;-80
2022/04/20 07:31:36;;;;;;;49.42;34.18;;;;;;;8.27;100.00;100465.11;1701750;83;22068;-79
2022/04/20 07:34:22;;;;;;;47.85;34.13;;;;;;;8.38;100.00;100461.78;1715467;80;21053;-78
2022/04/20 07:37:08;;;;;;;44.25;29.05;;;;;;;8.44;100.00;100465.72;1690259;84;21206;-77
2022/04/20 07:39:39;;;;;;;42.17;29.60;;;;;;;8.57;100.00;100481.31;1693128;82;21457;-78
2022/04/20 07:42:22;;;;;;;36.90;27.62;;;;;;;8.64;100.00;100482.09;1744372;81;21325;-78
2022/04/20 07:44:56;;;;;;;38.33;27.30;;;;;;;8.77;100.00;100483.83;1740774;82;21140;-78
2022/04/20 07:47:25;;;;;;;43.20;27.77;;;;;;;8.87;100.00;100487.91;1735048;82;21564;-78
2022/04/20 07:50:21;;;;;;;37.23;26.17;;;;;;;8.98;100.00;100489.30;1740048;82;21002;-78
2022/04/20 07:52:57;;;;;;;39.50;26.80;;;;;;;9.04;100.00;100484.95;1714016;83;21017;-78
2022/04/20 07:55:29;;;;;;;41.98;27.22;;;;;;;9.11;100.00;100485.36;1700400;81;21096;-78
2022/04/20 07:58:02;;;;;;;36.33;25.37;;;;;;;9.20;100.00;100481.27;1701123;82;21547;-78
2022/04/20 08:00:49;;;;;;;56.58;42.50;;;;;;;9.30;100.00;100474.00;1691124;82;21827;-80
2022/04/20 08:03:20;;;;;;;38.73;28.98;;;;;;;9.43;100.00;100467.45;1692507;81;21065;-78
2022/04/20 08:05:56;;;;;;;35.43;25.72;;;;;;;9.56;100.00;100462.67;1747631;80;21062;-77
2022/04/20 08:08:25;;;;;;;39.58;25.95;;;;;;;9.61;100.00;100458.77;1742952;80;21032;-76
2022/04/20 08:10:55;;;;;;;36.28;25.37;;;;;;;9.64;100.00;100456.44;1748446;80;21198;-79
2022/04/20 08:16:12;;;;;;;32.25;24.40;;;;;;;9.61;100.00;100454.05;1744365;82;22034;-77
2022/04/20 08:18:42;;;;;;;36.53;25.55;;;;;;;9.38;100.00;100451.37;1738894;80;21479;-76
2022/04/20 08:21:22;;;;;;;35.45;24.60;;;;;;;9.38;100.00;100451.37;1752078;81;21077;-77
2022/04/20 08:23:50;;;;;;;40.35;26.95;;;;;;;9.34;100.00;100443.91;1755226;81;21549;-76
2022/04/20 08:26:17;;;;;;;39.20;27.58;;;;;;;9.33;100.00;100450.88;1758428;80;21023;-77
2022/04/20 08:28:45;;;;;;;35.88;25.77;;;;;;;9.40;100.00;100450.80;1754836;81;21080;-77
2022/04/20 08:31:15;;;;;;;38.45;26.35;;;;;;;9.47;100.00;100452.45;1751204;80;21746;-79
2022/04/20 08:33:43;;;;;;;35.68;27.25;;;;;;;9.55;100.00;100455.80;1742129;82;20992;-76
2022/04/20 08:36:12;;;;;;;37.90;27.32;;;;;;;9.60;100.00;100447.19;1740718;82;21166;-76
2022/04/20 08:38:40;;;;;;;38.70;27.55;;;;;;;9.70;100.00;100454.67;1720289;82;21061;-79
2022/04/20 08:41:12;;;;;;;38.53;25.90;;;;;;;9.82;100.00;100465.09;1741021;82;21055;-79
2022/04/20 08:43:41;;;;;;;35.35;26.05;;;;;;;9.91;100.00;100470.91;1720966;82;21555;-78
2022/04/20 08:46:12;;;;;;;35.78;24.92;;;;;;;10.04;100.00;100468.22;1719705;81;21171;-76
2022/04/20 08:48:41;;;;;;;39.88;27.30;;;;;;;10.15;100.00;100470.01;1747685;81;21071;-76
2022/04/20 08:51:09;;;;;;;40.35;27.65;;;;;;;10.25;100.00;100472.28;1717814;82;21654;-76
2022/04/20 08:53:37;;;;;;;38.28;27.00;;;;;;;10.33;100.00;100469.11;1747089;82;21926;-78
2022/04/20 08:58:54;;;;;;;41.65;29.15;;;;;;;10.37;100.00;100465.34;1746665;81;21092;-77
2022/04/20 09:01:27;;;;;;;38.90;28.00;;;;;;;10.29;100.00;100463.77;1747132;82;21157;-76
2022/04/20 09:04:00;;;;;;;41.48;28.57;;;;;;;10.25;100.00;100467.89;1745846;81;21021;-76
2022/04/20 09:06:28;;;;;;;34.70;25.55;;;;;;;10.29;100.00;100463.31;1748478;81;21557;-76
2022/04/20 09:08:56;;;;;;;37.80;27.05;;;;;;;10.40;100.00;100455.52;1747161;82;21505;-76
2022/04/20 09:11:26;;;;;;;34.80;25.02;;;;;;;10.50;100.00;100450.91;1746810;81;21050;-76
2022/04/20 09:13:53;;;;;;;32.20;25.00;;;;;;;10.58;100.00;100449.84;1747262;82;21152;-77
2022/04/20 09:16:22;;;;;;;38.53;25.68;;;;;;;10.65;100.00;100451.02;1748909;81;21457;-79
2022/04/20 09:18:51;;;;;;;34.38;25.90;;;;;;;10.78;100.00;100453.48;1747547;81;21748;-78
2022/04/20 09:21:20;;;;;;;35.17;25.20;;;;;;;10.89;100.00;100449.58;1747359;82;21086;-77
2022/04/20 09:23:54;;;;;;;37.57;25.33;;;;;;;10.95;100.00;100453.45;1748061;81;21634;-79
2022/04/20 09:26:24;;;;;;;34.80;25.90;;;;;;;10.93;100.00;100455.83;1744280;82;22710;-77
2022/04/20 09:29:07;;;;;;;28.92;22.35;;;;;;;10.85;100.00;100459.05;1747317;82;21535;-77
2022/04/20 09:31:53;;;;;;;28.80;22.30;;;;;;;10.78;100.00;100460.45;1742966;80;21014;-77
2022/04/20 09:37:24;;;;;;;29.65;22.07;;;;;;;10.76;100.00;100455.86;1694562;83;22070;-77
2022/04/20 09:39:54;;;;;;;24.20;20.65;;;;;;;10.80;100.00;100462.47;1726219;82;20991;-77
2022/04/20 09:42:23;;;;;;;29.57;23.77;;;;;;;10.84;100.00;100465.20;1723210;82;21516;-80
2022/04/20 09:45:01;;;;;;;33.63;24.15;;;;;;;10.85;100.00;100466.87;1702272;82;21031;-80
2022/04/20 09:50:26;;;;;;;33.88;25.57;;;;;;;10.89;100.00;100474.78;1768292;79;21007;-77
2022/04/20 09:52:58;;;;;;;34.63;25.02;;;;;;;10.92;100.00;100478.45;1758094;80;21319;-77
2022/04/20 09:55:35;;;;;;;34.20;26.02;;;;;;;10.94;100.00;100475.72;1764912;80;21037;-77
2022/04/20 09:58:17;;;;;;;31.48;24.20;;;;;;;10.99;100.00;100477.48;1752437;81;21083;-77
2022/04/20 10:00:49;;;;;;;33.18;23.83;;;;;;;11.07;100.00;100478.19;1751519;81;21493;-80
2022/04/20 10:03:31;;;;;;;34.13;24.82;;;;;;;11.15;100.00;100484.44;1763576;80;21031;-77
2022/04/20 10:06:00;;;;;;;29.90;23.52;;;;;;;11.23;100.00;100483.83;1770507;80;21232;-77
2022/04/20 10:08:29;;;;;;;28.27;21.70;;;;;;;11.29;100.00;100480.73;1735808;82;21062;-77
2022/04/20 10:10:58;;;;;;;32.58;23.60;;;;;;;11.32;100.00;100485.70;1703880;82;21354;-79
2022/04/20 10:13:28;;;;;;;28.75;22.73;;;;;;;11.29;100.00;100489.85;1729814;82;21621;-80
2022/04/20 10:16:05;;;;;;;28.23;22.20;;;;;;;11.24;100.00;100486.80;1728152;82;21122;-77
2022/04/20 10:18:37;;;;;;;27.82;20.77;;;;;;;11.16;100.00;100487.39;1716291;83;21004;-77
2022/04/20 10:21:13;;;;;;;19.57;16.90;;;;;;;10.97;100.00;100488.03;1720761;82;21493;-77
2022/04/20 10:23:47;;;;;;;17.60;15.70;;;;;;;10.97;100.00;100488.03;1728486;82;22287;-77
2022/04/20 10:26:17;;;;;;;16.77;14.95;;;;;;;10.89;100.00;100490.41;1747018;82;21547;-77
2022/04/20 10:29:19;;;;;;;14.70;13.13;;;;;;;10.83;100.00;100493.50;1747717;81;21049;-76
2022/04/20 10:31:55;;;;;;;14.55;13.03;;;;;;;10.78;100.00;100489.95;1736640;81;22064;-76
2022/04/20 10:34:23;;;;;;;12.88;11.43;;;;;;;10.67;100.00;100501.20;1736315;82;21423;-77
2022/04/20 10:37:01;;;;;;;13.98;12.55;;;;;;;10.57;100.00;100498.50;1671397;82;21118;-77
2022/04/20 10:39:39;;;;;;;12.93;11.22;;;;;;;10.44;100.00;100499.06;1733299;82;21056;-77
2022/04/20 10:42:17;;;;;;;12.53;11.22;;;;;;;10.31;100.00;100504.34;1732576;82;21128;-76
2022/04/20 10:45:10;;;;;;;12.55;11.25;;;;;;;10.16;100.00;100509.40;1734069;82;21163;-77
2022/04/20 10:47:42;;;;;;;14.30;12.80;;;;;;;10.04;100.00;100512.45;1714530;83;21029;-76
2022/04/20 10:50:19;;;;;;;14.93;12.58;;;;;;;9.93;100.00;100519.75;1761590;81;21069;-80
2022/04/20 10:53:03;;;;;;;14.35;12.13;;;;;;;9.89;100.00;100526.14;1766676;79;21298;-77
2022/04/20 10:55:48;;;;;;;12.35;11.15;;;;;;;9.86;100.00;100521.15;1699078;83;21082;-77
2022/04/20 10:58:21;;;;;;;13.03;11.68;;;;;;;9.86;100.00;100514.64;1774978;79;21088;-77
2022/04/20 11:01:10;;;;;;;13.00;11.05;;;;;;;9.95;100.00;100514.78;1752564;81;21104;-77
2022/04/20 11:04:05;;;;;;;14.05;12.45;;;;;;;10.09;100.00;100521.57;1750109;80;21052;-77
2022/04/20 11:07:07;;;;;;;12.70;11.40;;;;;;;10.39;100.00;100526.74;1752210;81;21060;-77
2022/04/20 11:09:49;;;;;;;12.47;10.63;;;;;;;10.82;100.00;100526.52;1731843;81;21049;-78
2022/04/20 11:18:44;;;;;;;10.53;9.48;;;;;;;11.36;100.00;100518.38;1752036;81;21044;-78
2022/04/20 11:21:21;;;;;;;9.00;8.10;;;;;;;11.41;100.00;100507.59;1702707;81;21117;-80
2022/04/20 11:23:59;;;;;;;9.43;8.43;;;;;;;11.41;100.00;100502.38;1765368;80;21047;-77
2022/04/20 11:26:39;;;;;;;15.28;9.18;;;;;;;11.42;100.00;100499.28;1763035;80;21826;-77
2022/04/20 11:29:15;;;;;;;11.50;9.05;;;;;;;11.38;100.00;100492.19;1752375;81;21132;-79
2022/04/20 11:32:02;;;;;;;10.23;8.80;;;;;;;11.33;100.00;100491.28;1750895;81;21614;-78
2022/04/20 11:34:45;;;;;;;11.08;9.63;;;;;;;11.27;100.00;100491.75;1697406;83;21104;-82
2022/04/20 11:37:13;;;;;;;9.58;8.68;;;;;;;11.13;100.00;100491.56;1726639;82;21093;-78
2022/04/20 11:39:42;;;;;;;9.60;8.70;;;;;;;10.99;100.00;100497.86;1689774;83;21237;-77
2022/04/20 11:42:11;;;;;;;14.13;12.73;;;;;;;10.84;100.00;100499.88;1680853;84;21598;-79
2022/04/20 11:44:41;;;;;;;11.22;10.05;;;;;;;10.76;100.00;100485.33;1705579;79;21531;-76
2022/04/20 11:47:17;;;;;;;10.50;9.30;;;;;;;10.83;100.00;100489.11;1715463;82;21608;-76
2022/04/20 11:49:46;;;;;;;11.75;9.68;;;;;;;11.01;100.00;100489.46;1667319;84;21022;-76
2022/04/20 11:52:18;;;;;;;11.80;10.60;;;;;;;11.16;100.00;100483.97;1678111;83;21017;-76
2022/04/20 11:54:49;;;;;;;11.30;10.10;;;;;;;11.30;100.00;100472.42;1681894;85;21038;-76
2022/04/20 11:57:22;;;;;;;11.50;10.38;;;;;;;11.45;100.00;100472.52;1668409;85;21088;-78
2022/04/20 11:59:51;;;;;;;11.95;9.93;;;;;;;11.65;100.00;100465.67;1684873;83;21042;-77
2022/04/20 12:02:21;;;;;;;10.63;9.58;;;;;;;11.83;100.00;100466.38;1702425;84;21072;-77
2022/04/20 12:05:05;;;;;;;9.70;8.70;;;;;;;12.00;100.00;100465.03;1687144;83;21584;-77
2022/04/20 12:07:36;;;;;;;9.33;8.45;;;;;;;12.13;100.00;100454.39;1704371;82;21047;-75
2022/04/20 12:10:05;;;;;;;9.98;7.75;;;;;;;12.23;100.00;100451.33;1680525;85;21065;-78
2022/04/20 12:12:34;;;;;;;8.77;7.97;;;;;;;12.25;100.00;100441.59;1681967;85;21065;-77